Time;durP1;ratioP1;P1;durP2;ratioP2;P2;SDS_P1;SDS_P2;PMS_P1;PMS_P2;Temp;Humidity;BMP_temperature;BMP_pressure;BME280_temperature;BME280_humidity;BME280_pressure;Samples;Min_cycle;Max_cycle;Signal;HPM_P1;HPM_P2
2021/10/22 00:00:48;;;;;;;0.80;0.40;;;;;;;10.31;80.07;96564.06;4996220;28;20527;-76
2021/10/22 00:03:15;;;;;;;3.83;0.80;;;;;;;10.28;82.78;96555.78;4996514;28;20590;-76
2021/10/22 00:05:43;;;;;;;2.33;1.02;;;;;;;10.37;86.01;96567.75;5004099;28;20061;-77
2021/10/22 00:08:11;;;;;;;1.02;0.80;;;;;;;10.44;85.99;96565.25;5001948;28;20424;-77
2021/10/22 00:10:39;;;;;;;1.20;1.10;;;;;;;10.48;85.38;96566.50;4995947;28;20417;-75
2021/10/22 00:13:07;;;;;;;1.90;1.05;;;;;;;10.47;85.50;96570.91;4996222;28;20054;-76
2021/10/22 00:15:35;;;;;;;0.70;0.70;;;;;;;10.41;85.28;96574.25;4996046;28;20060;-76
2021/10/22 00:18:02;;;;;;;0.73;0.73;;;;;;;10.42;85.84;96577.66;4996056;28;20171;-76
2021/10/22 00:20:30;;;;;;;0.40;0.40;;;;;;;10.36;82.34;96576.56;4995341;28;20058;-75
2021/10/22 00:22:57;;;;;;;1.55;0.85;;;;;;;10.26;83.20;96589.84;4996004;28;20134;-76
2021/10/22 00:25:24;;;;;;;1.20;0.60;;;;;;;10.27;84.74;96594.06;5006761;28;20050;-76
2021/10/22 00:27:53;;;;;;;2.55;1.05;;;;;;;10.28;84.66;96594.91;5014670;28;20086;-77
2021/10/22 00:30:21;;;;;;;1.40;0.77;;;;;;;10.28;84.96;96592.28;5006104;28;20497;-76
2021/10/22 00:32:48;;;;;;;1.20;0.90;;;;;;;10.27;85.27;96599.28;4996034;28;20053;-76
2021/10/22 00:35:16;;;;;;;1.23;0.70;;;;;;;10.27;85.32;96601.88;4995788;28;20424;-76
2021/10/22 00:37:43;;;;;;;1.73;1.10;;;;;;;10.27;85.58;96596.66;5008998;28;20054;-77
2021/10/22 00:40:13;;;;;;;0.85;0.52;;;;;;;10.24;85.10;96598.84;5011276;28;20042;-76
2021/10/22 00:42:40;;;;;;;1.13;1.02;;;;;;;10.22;85.41;96600.81;4995614;28;20404;-75
2021/10/22 00:45:10;;;;;;;1.30;0.88;;;;;;;10.22;86.27;96606.84;4995773;28;20050;-76
2021/10/22 00:47:37;;;;;;;1.75;0.73;;;;;;;10.20;84.82;96611.41;4995696;28;20496;-77
2021/10/22 00:50:06;;;;;;;1.48;0.90;;;;;;;10.19;84.51;96615.03;4995007;28;20047;-76
2021/10/22 00:52:33;;;;;;;0.70;0.70;;;;;;;10.18;85.28;96610.78;4995473;28;20460;-76
2021/10/22 00:55:01;;;;;;;1.15;0.80;;;;;;;10.14;84.95;96616.53;4995200;28;20050;-76
2021/10/22 00:57:29;;;;;;;1.35;1.25;;;;;;;10.11;85.07;96615.09;4995136;28;20055;-76
2021/10/22 00:59:56;;;;;;;1.95;1.38;;;;;;;10.10;85.87;96613.47;4994752;28;20046;-76
2021/10/22 01:02:25;;;;;;;3.13;1.15;;;;;;;10.11;86.19;96615.91;4995361;28;20054;-76
2021/10/22 01:04:53;;;;;;;2.85;1.98;;;;;;;10.09;85.69;96612.66;4995387;28;20054;-76
2021/10/22 01:07:21;;;;;;;1.67;1.58;;;;;;;10.06;nan;96615.63;4995047;28;20054;-75
2021/10/22 01:09:49;;;;;;;3.63;2.38;;;;;;;10.04;84.12;96624.63;4994620;28;20082;-76
2021/10/22 01:12:17;;;;;;;3.08;2.10;;;;;;;10.02;84.64;96622.19;4995104;28;20051;-76
2021/10/22 01:14:45;;;;;;;2.33;2.13;;;;;;;9.99;84.48;96621.72;4994963;28;20064;-76
2021/10/22 01:17:36;;;;;;;4.30;2.35;;;;;;;9.96;86.01;96624.69;4994748;28;20050;-76
2021/10/22 01:20:06;;;;;;;2.58;2.00;;;;;;;9.88;83.12;96631.59;4994306;28;20432;-76
2021/10/22 01:22:35;;;;;;;1.83;1.73;;;;;;;9.82;82.42;96634.91;4994827;28;20436;-76
2021/10/22 01:25:03;;;;;;;3.58;2.28;;;;;;;9.80;82.48;96634.28;4994944;28;20050;-76
2021/10/22 01:27:31;;;;;;;3.25;2.50;;;;;;;9.78;82.10;96636.25;4994832;28;20046;-76
2021/10/22 01:29:58;;;;;;;3.17;2.30;;;;;;;9.75;81.60;96636.59;4994289;28;20062;-76
2021/10/22 01:32:26;;;;;;;4.07;2.58;;;;;;;9.66;81.18;96629.81;4994460;28;20062;-76
2021/10/22 01:34:53;;;;;;;4.32;3.08;;;;;;;9.65;83.60;96626.41;4994585;28;20424;-76
2021/10/22 01:37:21;;;;;;;5.43;3.63;;;;;;;9.69;84.91;96637.31;4994565;28;20050;-75
2021/10/22 01:39:50;;;;;;;4.70;3.55;;;;;;;9.70;85.17;96636.31;4994026;28;20050;-76
2021/10/22 01:42:18;;;;;;;5.38;3.88;;;;;;;9.71;85.40;96632.72;4995024;28;20050;-75
2021/10/22 01:44:45;;;;;;;5.22;3.92;;;;;;;9.74;85.80;96624.56;4994351;28;20428;-76
2021/10/22 01:47:13;;;;;;;6.57;3.95;;;;;;;9.77;86.12;96620.78;4994178;28;20051;-76
2021/10/22 01:49:40;;;;;;;5.20;3.70;;;;;;;9.78;86.16;96615.41;4992499;28;20043;-76
2021/10/22 01:52:08;;;;;;;6.00;4.43;;;;;;;9.82;86.69;96623.69;4993847;28;20057;-77
2021/10/22 01:54:35;;;;;;;5.13;3.63;;;;;;;9.81;86.40;96622.84;4994041;28;20401;-76
2021/10/22 01:57:05;;;;;;;6.25;3.47;;;;;;;9.80;86.15;96623.84;4994029;28;20062;-76
2021/10/22 01:59:33;;;;;;;8.20;3.35;;;;;;;9.75;84.00;96634.00;4992187;28;20050;-76
2021/10/22 02:02:00;;;;;;;9.48;3.60;;;;;;;9.71;84.66;96637.94;5003178;28;20146;-77
2021/10/22 02:04:28;;;;;;;6.72;3.55;;;;;;;9.70;85.60;96631.91;5008573;28;20133;-76
2021/10/22 02:06:56;;;;;;;5.75;4.03;;;;;;;9.73;86.40;96632.53;5006470;28;20431;-76
2021/10/22 02:09:23;;;;;;;6.68;3.88;;;;;;;9.75;86.38;96626.19;4992211;28;20080;-76
2021/10/22 02:11:51;;;;;;;8.20;4.28;;;;;;;9.77;87.03;96629.41;4991771;28;20050;-76
2021/10/22 02:14:20;;;;;;;8.38;4.65;;;;;;;9.77;87.31;96629.41;4992808;28;20046;-76
2021/10/22 02:16:48;;;;;;;7.68;4.03;;;;;;;9.79;87.56;96634.44;4993979;28;20065;-76
2021/10/22 02:19:16;;;;;;;8.82;2.75;;;;;;;9.72;83.65;96631.72;4993098;28;20497;-76
2021/10/22 02:21:43;;;;;;;8.23;4.22;;;;;;;9.66;84.36;96627.22;4993775;28;20051;-76
2021/10/22 02:24:11;;;;;;;8.48;4.22;;;;;;;9.66;85.84;96632.44;4993576;28;20051;-76
2021/10/22 02:26:39;;;;;;;4.28;3.28;;;;;;;9.54;84.61;96634.66;4993546;28;20047;-75
2021/10/22 02:29:06;;;;;;;11.07;5.20;;;;;;;9.52;86.98;96635.81;4993276;28;20054;-76
2021/10/22 02:31:35;;;;;;;8.85;4.90;;;;;;;9.59;89.30;96642.72;4993840;28;20080;-76
2021/10/22 02:34:02;;;;;;;12.50;4.90;;;;;;;9.65;89.72;96654.25;4993460;28;20066;-76
2021/10/22 02:36:30;;;;;;;8.75;4.63;;;;;;;9.69;89.70;96663.34;4993570;28;20058;-76
2021/10/22 02:38:57;;;;;;;8.05;3.80;;;;;;;9.69;88.85;96652.94;4993085;28;20058;-77
2021/10/22 02:41:25;;;;;;;8.88;3.85;;;;;;;9.70;87.95;96647.53;4993111;28;20046;-76
2021/10/22 02:43:52;;;;;;;6.50;3.63;;;;;;;9.67;87.69;96649.69;4993465;28;20047;-76
2021/10/22 02:46:20;;;;;;;9.60;4.32;;;;;;;9.68;88.94;96649.50;4993170;28;20050;-76
2021/10/22 02:48:49;;;;;;;8.52;4.75;;;;;;;9.72;89.57;96647.34;4992955;28;20101;-76
2021/10/22 02:51:16;;;;;;;3.72;2.60;;;;;;;9.67;86.72;96649.69;4993461;28;20062;-76
2021/10/22 02:53:44;;;;;;;5.22;3.45;;;;;;;9.63;86.16;96654.44;4993287;28;20508;-76
2021/10/22 02:56:11;;;;;;;5.57;3.25;;;;;;;9.59;84.39;96641.94;4993445;28;20046;-76
2021/10/22 02:58:39;;;;;;;8.23;3.70;;;;;;;9.53;83.87;96647.81;4995989;28;20062;-76
2021/10/22 03:01:06;;;;;;;5.82;4.13;;;;;;;9.49;85.46;96650.78;5002424;28;20057;-77
2021/10/22 03:03:34;;;;;;;8.52;4.93;;;;;;;9.47;87.01;96665.78;4997983;28;20054;-76
2021/10/22 03:06:03;;;;;;;9.35;5.40;;;;;;;9.54;89.25;96660.69;4993128;28;20467;-76
2021/10/22 03:08:30;;;;;;;7.65;6.03;;;;;;;9.60;89.73;96670.41;4992801;28;20058;-76
2021/10/22 03:10:58;;;;;;;9.63;6.03;;;;;;;9.66;90.04;96668.88;5005357;28;20057;-76
2021/10/22 03:13:26;;;;;;;9.77;5.15;;;;;;;9.64;89.46;96669.09;5012948;28;20079;-76
2021/10/22 03:15:55;;;;;;;8.15;5.40;;;;;;;9.66;89.34;96676.69;5012456;28;20061;-76
2021/10/22 03:18:22;;;;;;;9.10;5.30;;;;;;;9.66;89.42;96664.50;4996362;28;20077;-76
2021/10/22 03:20:50;;;;;;;8.65;5.00;;;;;;;9.68;89.43;96667.72;4994691;28;20515;-76
2021/10/22 03:23:19;;;;;;;9.73;4.55;;;;;;;9.66;88.70;96669.72;4995555;28;20057;-76
2021/10/22 03:25:46;;;;;;;9.63;4.47;;;;;;;9.65;88.26;96667.28;4997617;28;20053;-76
2021/10/22 03:28:14;;;;;;;7.47;5.13;;;;;;;9.66;88.46;96666.28;4997233;28;20059;-76
2021/10/22 03:30:41;;;;;;;9.95;3.58;;;;;;;9.60;85.13;96675.63;4996894;28;20125;-76
2021/10/22 03:33:09;;;;;;;6.68;4.75;;;;;;;9.51;84.96;96675.84;4996669;28;20050;-76
2021/10/22 03:35:36;;;;;;;11.73;4.93;;;;;;;9.52;86.02;96682.69;4996702;28;20062;-76
2021/10/22 03:38:04;;;;;;;10.85;4.25;;;;;;;9.41;83.11;96676.88;5006118;28;20051;-76
2021/10/22 03:40:34;;;;;;;7.28;3.67;;;;;;;9.35;81.33;96676.75;5008120;28;20057;-77
2021/10/22 03:43:01;;;;;;;7.70;4.70;;;;;;;9.26;82.49;96682.00;5005695;28;20050;-77
2021/10/22 03:45:29;;;;;;;6.70;4.47;;;;;;;9.23;83.63;96689.34;5014709;28;20058;-76
2021/10/22 03:47:57;;;;;;;9.75;4.75;;;;;;;9.22;84.66;96692.94;5008012;28;20058;-76
2021/10/22 03:50:26;;;;;;;8.48;5.30;;;;;;;9.22;86.20;96682.50;4999741;28;20054;-77
2021/10/22 03:52:53;;;;;;;11.57;5.85;;;;;;;9.26;86.74;96684.59;4997202;28;20424;-76
2021/10/22 03:55:21;;;;;;;5.53;3.83;;;;;;;9.12;82.31;96681.91;5011398;28;20114;-76
2021/10/22 03:57:50;;;;;;;8.25;4.80;;;;;;;9.02;84.80;96685.53;5010841;28;20065;-76
2021/10/22 04:00:18;;;;;;;9.73;6.18;;;;;;;9.09;87.95;96688.25;4995796;28;20397;-76
2021/10/22 04:02:45;;;;;;;14.65;7.70;;;;;;;9.18;89.82;96696.84;4996255;28;20065;-76
2021/10/22 04:05:13;;;;;;;10.18;4.43;;;;;;;9.16;88.66;96693.59;4996573;28;20090;-76
2021/10/22 04:07:41;;;;;;;7.50;4.78;;;;;;;9.07;86.77;96695.44;4996384;28;20054;-76
2021/10/22 04:10:10;;;;;;;10.55;5.63;;;;;;;9.07;88.10;96700.63;4995834;28;20061;-76
2021/10/22 04:12:37;;;;;;;12.48;5.47;;;;;;;9.08;88.52;96702.28;4996108;28;20497;-76
2021/10/22 04:15:08;;;;;;;12.20;7.22;;;;;;;9.11;89.16;96706.31;4996083;28;20051;-76
2021/10/22 04:17:35;;;;;;;7.70;4.10;;;;;;;9.05;87.55;96710.41;4996356;28;20057;-76
2021/10/22 04:20:03;;;;;;;7.70;4.18;;;;;;;8.93;86.78;96709.97;5022667;23;20057;-76
2021/10/22 04:22:31;;;;;;;10.70;6.20;;;;;;;8.95;88.90;96708.00;5015626;28;20432;-76
2021/10/22 04:24:58;;;;;;;11.63;5.57;;;;;;;8.97;89.87;96706.06;5015689;28;20056;-76
2021/10/22 04:27:25;;;;;;;8.27;4.20;;;;;;;8.87;86.55;96708.03;5015874;28;20049;-76
2021/10/22 04:29:53;;;;;;;5.60;3.40;;;;;;;8.70;81.47;96704.66;5025630;28;20065;-76
2021/10/22 04:32:22;;;;;;;8.00;4.25;;;;;;;8.48;80.82;96702.78;5037388;28;20060;-76
2021/10/22 04:34:49;;;;;;;6.05;3.67;;;;;;;8.27;79.74;96696.31;5036018;28;20053;-76
2021/10/22 04:37:27;;;;;;;10.32;6.15;;;;;;;8.11;78.92;96702.34;5030817;28;20049;-76
2021/10/22 04:42:44;;;;;;;13.90;7.35;;;;;;;8.21;87.88;96717.75;5036109;28;20046;-76
2021/10/22 04:45:12;;;;;;;11.02;5.28;;;;;;;8.23;88.20;96721.00;5036364;28;20046;-76
2021/10/22 04:47:41;;;;;;;15.25;8.40;;;;;;;8.27;88.94;96724.09;5027297;28;20504;-76
2021/10/22 04:50:10;;;;;;;6.95;4.60;;;;;;;8.23;87.18;96719.19;5015346;28;20057;-76
2021/10/22 04:52:38;;;;;;;11.23;6.80;;;;;;;8.30;87.91;96728.94;5015632;28;20455;-76
2021/10/22 04:55:08;;;;;;;12.20;6.50;;;;;;;8.37;89.35;96724.69;5015810;28;20488;-78
2021/10/22 04:57:36;;;;;;;11.05;5.45;;;;;;;8.38;88.46;96723.75;5016070;28;20057;-78
2021/10/22 05:00:05;;;;;;;11.35;6.32;;;;;;;8.38;88.79;96726.34;5015797;28;20046;-77
2021/10/22 05:02:32;;;;;;;9.82;5.75;;;;;;;8.37;89.74;96729.91;5006372;28;20038;-77
2021/10/22 05:05:01;;;;;;;10.88;6.47;;;;;;;8.34;90.62;96730.25;5011239;28;20076;-76
2021/10/22 05:07:29;;;;;;;15.57;7.18;;;;;;;8.36;91.86;96728.28;5014240;28;20459;-75
2021/10/22 05:09:56;;;;;;;18.90;6.78;;;;;;;8.37;91.28;96729.91;5013873;28;20053;-77
2021/10/22 05:12:24;;;;;;;14.35;6.65;;;;;;;8.36;91.56;96733.50;5014664;28;20053;-76
2021/10/22 05:14:56;;;;;;;;;;;;;;;8.30;93.33;96723.75;5015210;28;20050;-76
2021/10/22 05:17:25;;;;;;;10.05;5.53;;;;;;;8.14;90.06;96722.78;5014748;28;19922;-75
2021/10/22 05:19:53;;;;;;;11.07;6.22;;;;;;;8.11;90.26;96722.28;5013595;28;20062;-76
2021/10/22 05:22:22;;;;;;;12.95;7.03;;;;;;;8.16;91.74;96733.81;5010695;28;20046;-76
2021/10/22 05:24:50;;;;;;;14.43;4.25;;;;;;;8.01;87.97;96719.88;4994587;28;20046;-76
2021/10/22 05:27:18;;;;;;;6.90;3.53;;;;;;;7.82;83.29;96726.19;4994477;28;20464;-75
2021/10/22 05:29:45;;;;;;;8.27;3.50;;;;;;;7.74;83.30;96724.41;4994475;28;20543;-77
2021/10/22 05:32:13;;;;;;;7.63;4.63;;;;;;;7.78;83.78;96730.06;4994407;28;20047;-77
2021/10/22 05:34:40;;;;;;;14.82;4.85;;;;;;;7.70;81.20;96728.28;4995238;28;20061;-77
2021/10/22 05:37:08;;;;;;;7.45;4.55;;;;;;;7.71;83.34;96734.28;4995544;28;20552;-77
2021/10/22 05:39:37;;;;;;;12.05;6.68;;;;;;;7.73;86.17;96735.75;4994597;28;20046;-77
2021/10/22 05:42:07;;;;;;;18.13;8.50;;;;;;;7.84;89.35;96735.44;4994976;28;20061;-77
2021/10/22 05:44:35;;;;;;;11.38;7.43;;;;;;;7.93;89.94;96732.84;5007858;28;20053;-77
2021/10/22 05:47:02;;;;;;;15.57;7.82;;;;;;;7.97;89.45;96728.94;5013857;28;20081;-77
2021/10/22 05:49:30;;;;;;;12.70;6.25;;;;;;;7.94;86.76;96734.47;5012873;28;20464;-77
2021/10/22 05:51:57;;;;;;;13.57;7.38;;;;;;;7.93;85.93;96732.84;5012999;28;20061;-77
2021/10/22 05:54:25;;;;;;;17.58;7.40;;;;;;;7.95;87.54;96741.28;5012806;28;20053;-78
2021/10/22 05:56:54;;;;;;;12.65;8.02;;;;;;;8.02;89.75;96742.25;5012307;28;20050;-77
2021/10/22 05:59:21;;;;;;;22.45;10.20;;;;;;;8.06;89.64;96748.75;5012407;28;20061;-77
2021/10/22 06:01:49;;;;;;;12.07;6.57;;;;;;;8.01;88.02;96746.66;5011966;28;20061;-77
2021/10/22 06:04:17;;;;;;;18.75;8.52;;;;;;;7.94;87.05;96745.69;5013320;28;20430;-77
2021/10/22 06:06:45;;;;;;;15.85;8.73;;;;;;;7.98;88.78;96756.53;5014385;28;20049;-78
2021/10/22 06:09:14;;;;;;;11.98;6.50;;;;;;;7.92;86.99;96758.00;5013792;28;20130;-77
2021/10/22 06:11:41;;;;;;;20.60;10.02;;;;;;;7.93;87.26;96756.22;5014159;28;20061;-77
2021/10/22 06:14:10;;;;;;;17.65;8.95;;;;;;;7.94;88.01;96768.25;5013900;28;20109;-77
2021/10/22 06:16:38;;;;;;;26.08;11.48;;;;;;;7.97;88.94;96776.50;5013774;28;20404;-77
2021/10/22 06:19:06;;;;;;;18.20;10.15;;;;;;;8.01;90.02;96766.63;5013458;28;20049;-77
2021/10/22 06:21:39;;;;;;;14.75;8.35;;;;;;;7.94;86.99;96770.84;5013773;28;20056;-77
2021/10/22 06:24:07;;;;;;;15.02;7.47;;;;;;;7.86;84.48;96774.22;5013602;28;20057;-78
2021/10/22 06:26:38;;;;;;;21.92;10.27;;;;;;;7.83;86.55;96774.56;5013368;28;20070;-77
2021/10/22 06:29:07;;;;;;;21.10;9.70;;;;;;;7.87;88.53;96782.81;5014588;28;20475;-78
2021/10/22 06:31:38;;;;;;;20.88;10.25;;;;;;;7.91;89.47;96787.53;5014389;28;20046;-78
2021/10/22 06:34:05;;;;;;;13.95;7.80;;;;;;;7.95;89.72;96783.66;5014746;28;20081;-78
2021/10/22 06:36:34;;;;;;;14.30;7.85;;;;;;;7.96;89.04;96789.66;5013353;28;20508;-77
2021/10/22 06:39:03;;;;;;;17.58;7.85;;;;;;;7.93;88.29;96795.19;5012995;28;20061;-77
2021/10/22 06:41:32;;;;;;;14.93;6.57;;;;;;;7.95;87.97;96808.81;5015362;28;20060;-78
2021/10/22 06:44:00;;;;;;;15.70;6.85;;;;;;;7.94;86.58;96802.03;5014864;28;20053;-77
2021/10/22 06:46:28;;;;;;;20.23;9.85;;;;;;;8.01;87.93;96803.81;5013404;28;20066;-78
2021/10/22 06:48:56;;;;;;;16.75;7.72;;;;;;;8.03;87.31;96814.03;5012963;28;20046;-77
2021/10/22 06:51:24;;;;;;;15.88;6.80;;;;;;;8.03;85.47;96819.22;5012879;28;20057;-77
2021/10/22 06:53:52;;;;;;;20.23;7.60;;;;;;;8.00;84.43;96814.34;5013308;28;20053;-77
2021/10/22 06:56:20;;;;;;;19.98;7.97;;;;;;;8.04;85.87;96819.06;5012777;28;20052;-77
2021/10/22 06:58:47;;;;;;;18.38;7.40;;;;;;;8.08;86.52;96819.56;5012734;28;20061;-77
2021/10/22 07:01:15;;;;;;;20.90;8.82;;;;;;;8.15;87.72;96830.94;5012946;28;20061;-77
2021/10/22 07:03:43;;;;;;;13.38;6.05;;;;;;;8.13;85.67;96822.47;5012618;28;20056;-78
2021/10/22 07:09:09;;;;;;;12.32;6.35;;;;;;;8.12;85.27;96836.47;4951875;29;20047;-77
2021/10/22 07:11:37;;;;;;;11.20;5.05;;;;;;;8.09;83.07;96831.59;5002960;28;20053;-77
2021/10/22 07:14:07;;;;;;;12.77;6.30;;;;;;;8.02;81.28;96835.78;5012764;28;20515;-78
2021/10/22 07:16:38;;;;;;;11.68;5.72;;;;;;;7.99;82.59;96841.31;5012779;28;20082;-77
2021/10/22 07:19:06;;;;;;;11.77;6.65;;;;;;;8.04;83.83;96850.22;5012573;28;20061;-77
2021/10/22 07:21:39;;;;;;;12.48;6.05;;;;;;;8.05;83.46;96849.28;5012859;28;20045;-77
2021/10/22 07:24:12;;;;;;;14.00;6.65;;;;;;;8.01;81.54;96850.56;5012740;28;20046;-78
2021/10/22 07:26:40;;;;;;;15.80;7.95;;;;;;;8.05;82.50;96864.06;5012711;28;20054;-77
2021/10/22 07:29:08;;;;;;;21.48;10.40;;;;;;;8.09;84.37;96867.97;5012435;28;20054;-77
2021/10/22 07:31:36;;;;;;;17.73;9.32;;;;;;;8.15;84.92;96871.69;5012706;28;20057;-77
2021/10/22 07:34:04;;;;;;;16.95;7.05;;;;;;;8.13;84.55;96878.84;5012763;28;20415;-78
2021/10/22 07:36:31;;;;;;;13.45;7.40;;;;;;;8.13;85.13;96890.03;5012604;28;20049;-77
2021/10/22 07:39:07;;;;;;;13.30;6.22;;;;;;;8.12;85.49;96895.41;5012226;28;20050;-77
2021/10/22 07:41:51;;;;;;;13.68;6.03;;;;;;;8.11;85.53;96899.81;5012651;28;20420;-77
2021/10/22 07:44:19;;;;;;;13.50;6.75;;;;;;;8.10;84.66;96897.34;5012667;28;20053;-77
2021/10/22 07:46:48;;;;;;;11.55;6.32;;;;;;;8.12;85.69;96904.00;5012774;28;20050;-77
2021/10/22 07:49:16;;;;;;;15.77;5.20;;;;;;;8.17;85.04;96906.13;5014437;28;20053;-77
2021/10/22 07:51:44;;;;;;;11.07;6.70;;;;;;;8.20;85.25;96896.25;5013752;28;20057;-77
2021/10/22 07:54:13;;;;;;;18.90;7.47;;;;;;;8.31;86.08;96904.69;5012886;28;20415;-77
2021/10/22 07:56:43;;;;;;;14.55;7.97;;;;;;;8.35;85.52;96911.19;5012790;28;20069;-77
2021/10/22 07:59:11;;;;;;;13.38;7.85;;;;;;;8.35;85.84;96908.59;5012345;28;20057;-77
2021/10/22 08:01:58;;;;;;;14.02;7.03;;;;;;;8.42;86.41;96914.84;5012591;28;20085;-77
2021/10/22 08:04:26;;;;;;;14.20;7.18;;;;;;;8.45;86.64;96919.69;5012487;28;20499;-77
2021/10/22 08:06:54;;;;;;;17.23;6.70;;;;;;;8.46;85.61;96921.31;5012493;28;20053;-77
2021/10/22 08:09:23;;;;;;;8.13;4.90;;;;;;;8.41;82.14;96927.00;5012927;28;20053;-77
2021/10/22 08:11:50;;;;;;;12.88;6.55;;;;;;;8.37;81.64;96927.44;5016288;28;20073;-77
2021/10/22 08:14:18;;;;;;;14.20;5.40;;;;;;;8.38;82.13;96929.09;5015906;28;20500;-77
2021/10/22 08:16:46;;;;;;;11.18;5.18;;;;;;;8.34;81.97;96938.97;5015872;28;20081;-77
2021/10/22 08:19:15;;;;;;;7.78;4.35;;;;;;;8.36;82.64;96944.03;5015500;28;20054;-77
2021/10/22 08:22:25;;;;;;;13.20;4.28;;;;;;;8.44;81.75;96938.88;5016430;28;20053;-77
2021/10/22 08:24:49;;;;;;;10.52;4.38;;;;;;;8.55;82.30;96941.19;5035980;28;20041;-79
2021/10/22 08:27:17;;;;;;;14.05;6.38;;;;;;;8.65;83.66;96938.41;5035908;28;20073;-77
2021/10/22 08:29:44;;;;;;;12.20;4.57;;;;;;;8.89;83.95;96942.00;5021930;28;20065;-77
2021/10/22 08:32:12;;;;;;;11.27;5.05;;;;;;;9.14;83.62;96935.81;5016217;28;20049;-77
2021/10/22 08:34:40;;;;;;;14.68;5.50;;;;;;;9.40;83.17;96927.81;5015684;28;20058;-77
2021/10/22 08:37:07;;;;;;;10.75;4.20;;;;;;;9.74;81.95;96931.94;5016055;28;20050;-77
2021/10/22 08:39:37;;;;;;;7.95;3.92;;;;;;;10.02;80.37;96926.31;5015273;28;20053;-77
2021/10/22 08:42:07;;;;;;;20.45;5.82;;;;;;;10.20;80.51;96932.06;5015483;28;20053;-77
2021/10/22 08:44:36;;;;;;;14.50;5.95;;;;;;;10.29;79.90;96938.09;5015772;28;20129;-78
2021/10/22 08:47:05;;;;;;;20.88;7.28;;;;;;;10.30;78.96;96942.34;5015652;28;20053;-78
2021/10/22 08:49:33;;;;;;;14.90;5.25;;;;;;;10.23;79.18;96936.97;5015329;28;20419;-78
2021/10/22 08:52:03;;;;;;;18.85;6.93;;;;;;;10.17;78.22;96947.25;5015609;28;20046;-77
2021/10/22 08:54:31;;;;;;;11.23;5.45;;;;;;;10.09;78.02;96941.09;5015502;28;20053;-78
2021/10/22 08:57:14;;;;;;;;;;;;;;;10.00;75.10;96949.13;5015945;28;20061;-77
2021/10/22 08:59:42;;;;;;;15.95;4.95;;;;;;;9.86;74.40;96946.25;5014895;28;19926;-78
2021/10/22 09:02:12;;;;;;;13.63;3.75;;;;;;;9.80;74.99;96939.09;5015304;28;20057;-77
2021/10/22 09:04:41;;;;;;;13.20;6.20;;;;;;;9.76;75.47;96950.03;5015167;28;20083;-77
2021/10/22 09:07:11;;;;;;;19.35;8.20;;;;;;;9.76;77.06;96950.03;5015643;28;20057;-77
2021/10/22 09:09:38;;;;;;;15.02;5.82;;;;;;;9.84;75.86;96945.59;5014929;28;20050;-77
2021/10/22 09:12:06;;;;;;;13.27;5.55;;;;;;;10.03;76.93;96949.56;5015094;28;20056;-78
2021/10/22 09:14:35;;;;;;;10.68;4.80;;;;;;;10.21;77.59;96949.34;5014994;28;20061;-78
2021/10/22 09:17:11;;;;;;;12.13;4.20;;;;;;;10.27;74.71;96946.03;5015152;28;20053;-77
2021/10/22 09:19:44;;;;;;;8.80;3.03;;;;;;;10.27;75.14;96943.44;5014919;28;20061;-77
2021/10/22 09:22:24;;;;;;;;;;;;;;;10.35;74.50;96941.81;5014401;28;20061;-78
2021/10/22 09:24:53;;;;;;;7.05;2.03;;;;;;;10.29;71.30;96946.72;5014567;28;20378;-78
2021/10/22 09:27:36;;;;;;;11.30;2.78;;;;;;;10.27;68.69;96948.66;5015023;28;20527;-78
2021/10/22 09:30:08;;;;;;;10.55;3.03;;;;;;;10.36;72.13;96951.25;5014880;28;20054;-78
2021/10/22 09:32:45;;;;;;;12.35;2.75;;;;;;;10.52;74.40;96953.78;5015144;28;20046;-78
2021/10/22 09:35:13;;;;;;;9.00;3.35;;;;;;;10.83;71.71;96950.31;5014729;28;20053;-78
2021/10/22 09:37:41;;;;;;;7.63;1.80;;;;;;;11.22;73.22;96963.22;5014833;28;20049;-78
2021/10/22 09:40:09;;;;;;;5.22;1.58;;;;;;;11.63;72.90;96955.00;5014690;28;20061;-78
2021/10/22 09:42:48;;;;;;;7.13;1.70;;;;;;;12.17;70.60;96959.13;5014867;28;20100;-78
2021/10/22 09:45:27;;;;;;;6.47;1.60;;;;;;;12.75;65.52;96959.97;5014736;28;20061;-78
2021/10/22 09:47:54;;;;;;;8.88;2.20;;;;;;;13.28;67.77;96959.66;5014988;28;20050;-78
2021/10/22 09:50:28;;;;;;;5.45;1.70;;;;;;;13.84;64.34;96966.69;5014384;28;20057;-78
2021/10/22 09:52:57;;;;;;;10.43;2.97;;;;;;;14.39;59.51;96958.88;5014924;28;20045;-78
2021/10/22 09:55:29;;;;;;;5.38;2.38;;;;;;;14.77;55.10;96961.81;5014932;28;20440;-79
2021/10/22 09:58:07;;;;;;;9.07;2.80;;;;;;;14.88;56.56;96970.13;5015349;28;20419;-78
2021/10/22 10:00:36;;;;;;;7.93;2.33;;;;;;;15.09;55.73;96982.28;5014555;28;20652;-79
2021/10/22 10:03:06;;;;;;;11.88;2.85;;;;;;;15.22;58.12;96972.59;5015059;28;20484;-78
2021/10/22 10:05:34;;;;;;;5.60;2.53;;;;;;;15.13;53.96;96973.78;5014995;28;20053;-79
2021/10/22 10:08:01;;;;;;;6.75;1.98;;;;;;;14.95;53.10;96965.69;5014643;28;20420;-78
2021/10/22 10:10:29;;;;;;;14.15;6.68;;;;;;;15.00;56.84;96968.53;5014491;28;20042;-78
2021/10/22 10:12:57;;;;;;;11.43;3.83;;;;;;;14.95;55.07;96976.19;5014200;28;20061;-79
2021/10/22 10:15:25;;;;;;;12.88;3.38;;;;;;;14.90;51.87;96968.09;5014527;28;20046;-79
2021/10/22 10:17:55;;;;;;;8.98;2.78;;;;;;;15.00;53.54;96971.16;5014736;28;20050;-78
2021/10/22 10:20:27;;;;;;;9.85;2.67;;;;;;;15.08;48.84;96963.06;5013879;28;20423;-79
2021/10/22 10:22:57;;;;;;;6.38;2.35;;;;;;;15.22;53.52;96953.38;5014763;28;20052;-79
2021/10/22 10:25:25;;;;;;;8.80;3.10;;;;;;;15.29;52.69;96951.56;5013793;28;20057;-79
2021/10/22 10:27:55;;;;;;;8.68;2.70;;;;;;;15.42;54.30;96956.00;5013809;28;20065;-79
2021/10/22 10:30:30;;;;;;;8.82;2.90;;;;;;;15.62;54.10;96956.78;5013418;28;20088;-79
2021/10/22 10:33:00;;;;;;;11.52;3.40;;;;;;;15.82;52.42;96950.69;5014119;28;20511;-79
2021/10/22 10:35:34;;;;;;;6.68;1.88;;;;;;;16.04;50.78;96943.34;5014932;28;20054;-80
2021/10/22 10:38:02;;;;;;;4.65;1.88;;;;;;;16.34;53.64;96948.91;5014254;28;20060;-81
2021/10/22 10:40:32;;;;;;;7.50;1.48;;;;;;;16.67;51.33;96958.47;5014376;28;20050;-80
2021/10/22 10:43:01;;;;;;;6.82;2.00;;;;;;;16.99;50.26;96951.41;5014648;28;20077;-80
2021/10/22 10:45:40;;;;;;;4.30;1.45;;;;;;;17.21;46.93;96964.22;5014145;28;20053;-79
2021/10/22 10:48:13;;;;;;;8.75;2.00;;;;;;;17.23;46.48;96952.44;5013890;28;20129;-79
2021/10/22 10:50:47;;;;;;;5.65;1.25;;;;;;;17.25;51.19;96954.84;5013229;28;20061;-79
2021/10/22 10:53:30;;;;;;;6.65;1.77;;;;;;;17.08;50.02;96944.03;5013826;28;20057;-81
2021/10/22 10:55:58;;;;;;;8.55;1.58;;;;;;;17.06;49.73;96954.00;5014163;28;20054;-81
2021/10/22 10:58:26;;;;;;;11.68;4.78;;;;;;;16.87;49.47;96948.63;5013751;28;20484;-81
2021/10/22 11:00:56;;;;;;;11.40;3.45;;;;;;;16.76;43.53;96951.91;5013944;28;20053;-81
2021/10/22 11:03:28;;;;;;;8.70;2.28;;;;;;;16.64;41.41;96959.69;5014208;28;20074;-81
2021/10/22 11:06:08;;;;;;;;;;;;;;;16.66;41.74;96957.66;5013816;28;20053;-81
2021/10/22 11:08:42;;;;;;;5.18;1.35;;;;;;;16.50;43.58;96958.13;5013908;28;19921;-81
2021/10/22 11:11:26;;;;;;;7.80;1.90;;;;;;;16.36;47.36;96962.66;5013843;28;20060;-81
2021/10/22 11:13:57;;;;;;;7.65;2.78;;;;;;;16.11;41.33;96969.63;5013828;28;20050;-81
2021/10/22 11:16:29;;;;;;;8.35;2.25;;;;;;;15.92;43.90;96958.97;5013950;28;20508;-81
2021/10/22 11:19:00;;;;;;;7.22;3.17;;;;;;;15.97;42.35;96967.06;5013284;28;20568;-81
2021/10/22 11:21:30;;;;;;;4.57;1.35;;;;;;;16.32;43.43;96958.03;5013390;28;20042;-81
2021/10/22 11:23:59;;;;;;;3.17;1.08;;;;;;;16.68;47.52;96957.44;5012608;28;20132;-81
2021/10/22 11:26:28;;;;;;;6.63;1.60;;;;;;;16.95;44.93;96954.69;5013760;28;20522;-81
2021/10/22 11:28:58;;;;;;;6.53;1.35;;;;;;;17.23;44.94;96952.44;5013653;28;20091;-81
2021/10/22 11:31:39;;;;;;;3.67;1.08;;;;;;;17.46;42.59;96953.66;5013724;28;20053;-81
2021/10/22 11:34:14;;;;;;;5.10;1.73;;;;;;;17.73;47.95;96951.56;5013436;28;20050;-81
2021/10/22 11:36:55;;;;;;;5.53;1.92;;;;;;;17.99;38.62;96950.50;5013569;28;20088;-81
2021/10/22 11:39:26;;;;;;;8.38;2.85;;;;;;;18.19;44.60;96960.03;5013588;28;20060;-81
2021/10/22 11:42:16;;;;;;;6.95;2.15;;;;;;;18.31;41.55;96951.16;5013648;28;20081;-81
2021/10/22 11:44:47;;;;;;;13.32;2.88;;;;;;;18.35;38.66;96959.44;5010184;28;20050;-82
2021/10/22 11:47:15;;;;;;;16.02;2.75;;;;;;;18.38;40.84;96956.34;5016218;28;20060;-81
2021/10/22 11:49:45;;;;;;;5.90;1.42;;;;;;;18.49;42.39;96955.59;5016834;28;20053;-81
2021/10/22 11:52:17;;;;;;;2.85;1.20;;;;;;;18.59;36.17;96964.84;5017145;28;20085;-81